Time;durP1;ratioP1;P1;durP2;ratioP2;P2;SDS_P1;SDS_P2;PMS_P1;PMS_P2;Temp;Humidity;BMP_temperature;BMP_pressure;BME280_temperature;BME280_humidity;BME280_pressure;Samples;Min_cycle;Max_cycle;Signal;HPM_P1;HPM_P2
2023/09/04 00:01:21;;;;;;;;;;;15.50;85.20;;;;;;5051399;28;20524;-79
2023/09/04 00:03:46;;;;;;;;;;;15.40;85.30;;;;;;5029517;28;20437;-80
2023/09/04 00:06:12;;;;;;;;;;;15.40;85.00;;;;;;5036768;28;19915;-80
2023/09/04 00:08:37;;;;;;;;;;;15.40;84.90;;;;;;5050026;28;19913;-79
2023/09/04 00:11:03;;;;;;;;;;;15.40;84.90;;;;;;5055932;28;20443;-80
2023/09/04 00:13:28;;;;;;;;;;;15.40;85.40;;;;;;5038975;28;19982;-79
2023/09/04 00:15:56;;;;;;;;;;;15.30;85.60;;;;;;5037010;28;19913;-80
2023/09/04 00:18:24;;;;;;;;;;;15.30;86.00;;;;;;5025565;28;19921;-79
2023/09/04 00:20:52;;;;;;;;;;;15.30;86.00;;;;;;5047824;28;19936;-79
2023/09/04 00:23:17;;;;;;;;;;;15.40;85.80;;;;;;5038425;28;19941;-79
2023/09/04 00:25:43;;;;;;;;;;;15.40;85.40;;;;;;5039026;28;20396;-80
2023/09/04 00:28:08;;;;;;;;;;;15.40;85.40;;;;;;5037086;28;19913;-80
2023/09/04 00:30:34;;;;;;;;;;;15.40;85.10;;;;;;5037548;28;19987;-80
2023/09/04 00:32:59;;;;;;;;;;;15.50;85.30;;;;;;5035380;28;19912;-79
2023/09/04 00:35:25;;;;;;;;;;;15.60;84.20;;;;;;5043590;28;19925;-78
2023/09/04 00:37:50;;;;;;;;;;;15.60;84.00;;;;;;5030293;28;20322;-80
2023/09/04 00:40:16;;;;;;;;;;;15.50;84.20;;;;;;5054881;28;19916;-80
2023/09/04 00:42:41;;;;;;;;;;;15.50;84.20;;;;;;5055651;28;19923;-79
2023/09/04 00:45:11;;;;;;;;;;;15.50;84.50;;;;;;5053222;28;19935;-80
2023/09/04 00:47:38;;;;;;;;;;;15.60;84.30;;;;;;5025266;28;19913;-79
2023/09/04 00:50:05;;;;;;;;;;;15.60;84.40;;;;;;5055238;28;19993;-79
2023/09/04 00:52:31;;;;;;;;;;;15.50;84.50;;;;;;5035043;28;19920;-79
2023/09/04 00:54:57;;;;;;;;;;;15.50;84.70;;;;;;5037017;28;19917;-79
2023/09/04 00:57:26;;;;;;;;;;;15.60;84.50;;;;;;5050991;28;20340;-79
2023/09/04 00:59:52;;;;;;;;;;;15.60;83.70;;;;;;5033510;28;19979;-80
2023/09/04 01:02:17;;;;;;;;;;;15.60;84.10;;;;;;5054715;28;19925;-79
2023/09/04 01:04:43;;;;;;;;;;;15.50;84.30;;;;;;5055417;28;20358;-80
2023/09/04 01:07:08;;;;;;;;;;;15.50;84.10;;;;;;5053530;28;20003;-79
2023/09/04 01:09:34;;;;;;;;;;;15.40;84.20;;;;;;5035007;28;19928;-79
2023/09/04 01:12:09;;;;;;;;;;;15.50;84.40;;;;;;5053879;28;20564;-79
2023/09/04 01:14:35;;;;;;;;;;;15.40;84.20;;;;;;5026665;28;19960;-79
2023/09/04 01:17:01;;;;;;;;;;;15.50;84.30;;;;;;5033637;28;19909;-79
2023/09/04 01:19:26;;;;;;;;;;;15.50;83.80;;;;;;5051039;28;19916;-78
2023/09/04 01:21:52;;;;;;;;;;;15.50;83.50;;;;;;5034740;28;19921;-80
2023/09/04 01:24:17;;;;;;;;;;;15.50;83.10;;;;;;5047808;28;20008;-80
2023/09/04 01:27:01;;;;;;;;;;;15.50;83.20;;;;;;5036931;28;20508;-79
2023/09/04 01:29:29;;;;;;;;;;;15.30;83.90;;;;;;5053977;28;19917;-79
2023/09/04 01:32:00;;;;;;;;;;;15.20;84.10;;;;;;5037219;28;19945;-79
2023/09/04 01:34:28;;;;;;;;;;;15.30;83.80;;;;;;5037127;28;20283;-80
2023/09/04 01:36:55;;;;;;;;;;;15.20;83.90;;;;;;5041193;28;19924;-80
2023/09/04 01:39:21;;;;;;;;;;;15.10;84.20;;;;;;5050054;28;19923;-80
2023/09/04 01:41:47;;;;;;;;;;;15.00;84.40;;;;;;5028003;28;19947;-80
2023/09/04 01:44:14;;;;;;;;;;;15.00;84.60;;;;;;5034515;28;19913;-80
2023/09/04 01:46:39;;;;;;;;;;;14.90;85.20;;;;;;5051395;28;19995;-80
2023/09/04 01:49:05;;;;;;;;;;;14.80;84.90;;;;;;5035547;28;19955;-78
2023/09/04 01:51:30;;;;;;;;;;;14.80;85.10;;;;;;5053913;28;19920;-80
2023/09/04 01:53:55;;;;;;;;;;;14.90;85.20;;;;;;5037771;28;19948;-80
2023/09/04 01:56:21;;;;;;;;;;;14.80;85.20;;;;;;5033714;28;19920;-79
2023/09/04 01:58:46;;;;;;;;;;;14.70;85.40;;;;;;5049067;28;19921;-80
2023/09/04 02:01:13;;;;;;;;;;;14.60;85.70;;;;;;5051598;28;19916;-80
2023/09/04 02:03:38;;;;;;;;;;;14.70;85.90;;;;;;5052369;28;19913;-79
2023/09/04 02:06:04;;;;;;;;;;;14.80;85.60;;;;;;5034646;28;19916;-79
2023/09/04 02:08:30;;;;;;;;;;;14.90;85.60;;;;;;5049246;28;19920;-79
2023/09/04 02:10:57;;;;;;;;;;;14.90;85.20;;;;;;5053597;28;19912;-79
2023/09/04 02:13:22;;;;;;;;;;;14.90;85.00;;;;;;5045341;28;19931;-80
2023/09/04 02:15:48;;;;;;;;;;;14.90;84.40;;;;;;5028894;28;19966;-80
2023/09/04 02:18:13;;;;;;;;;;;14.90;84.30;;;;;;5049976;28;19984;-79
2023/09/04 02:20:39;;;;;;;;;;;14.80;84.80;;;;;;5054028;28;19909;-80
2023/09/04 02:23:04;;;;;;;;;;;14.70;85.00;;;;;;5034279;28;19944;-79
2023/09/04 02:25:30;;;;;;;;;;;14.70;85.50;;;;;;5053708;28;19919;-80
2023/09/04 02:27:55;;;;;;;;;;;14.80;85.40;;;;;;5030772;28;20392;-79
2023/09/04 02:30:21;;;;;;;;;;;14.80;85.40;;;;;;5050064;28;20432;-80
2023/09/04 02:32:46;;;;;;;;;;;14.80;85.20;;;;;;5024975;28;19909;-80
2023/09/04 02:35:12;;;;;;;;;;;14.90;85.20;;;;;;5044443;28;19928;-79
2023/09/04 02:37:38;;;;;;;;;;;14.90;84.60;;;;;;5042721;28;19924;-79
2023/09/04 02:40:06;;;;;;;;;;;14.80;84.40;;;;;;5052415;28;20015;-80
2023/09/04 02:42:31;;;;;;;;;;;14.90;84.20;;;;;;5053201;28;19924;-80
2023/09/04 02:44:57;;;;;;;;;;;14.90;84.20;;;;;;5032449;28;19913;-79
2023/09/04 02:47:22;;;;;;;;;;;14.80;84.30;;;;;;5043767;28;19956;-80
2023/09/04 02:49:48;;;;;;;;;;;14.90;83.80;;;;;;5049286;28;19931;-80
2023/09/04 02:52:14;;;;;;;;;;;14.80;84.30;;;;;;5023990;28;19913;-80
2023/09/04 02:54:40;;;;;;;;;;;14.80;84.10;;;;;;5051923;28;19920;-80
2023/09/04 02:57:05;;;;;;;;;;;14.80;84.50;;;;;;5040132;28;19909;-80
2023/09/04 02:59:33;;;;;;;;;;;14.80;83.50;;;;;;5035170;28;19936;-79
2023/09/04 03:01:58;;;;;;;;;;;14.80;83.90;;;;;;5045621;28;19967;-80
2023/09/04 03:04:24;;;;;;;;;;;14.80;83.80;;;;;;5036761;28;19916;-79
2023/09/04 03:06:49;;;;;;;;;;;14.60;84.10;;;;;;5041429;28;20384;-80
2023/09/04 03:09:15;;;;;;;;;;;14.60;83.70;;;;;;5052634;28;20351;-80
2023/09/04 03:11:41;;;;;;;;;;;14.50;84.30;;;;;;5019614;28;19955;-79
2023/09/04 03:14:06;;;;;;;;;;;14.40;84.20;;;;;;5053837;28;19913;-78
2023/09/04 03:16:31;;;;;;;;;;;14.30;83.90;;;;;;5043998;28;19916;-81
2023/09/04 03:18:57;;;;;;;;;;;14.20;84.20;;;;;;5045411;28;19916;-81
2023/09/04 03:21:22;;;;;;;;;;;14.20;84.50;;;;;;5035688;28;19912;-81
2023/09/04 03:23:51;;;;;;;;;;;14.30;84.30;;;;;;5037577;28;20557;-81
2023/09/04 03:26:16;;;;;;;;;;;14.20;84.70;;;;;;5060911;28;20425;-78
2023/09/04 03:28:42;;;;;;;;;;;14.30;84.50;;;;;;5052014;28;19948;-79
2023/09/04 03:31:14;;;;;;;;;;;14.30;84.20;;;;;;5048581;28;20387;-79
2023/09/04 03:33:39;;;;;;;;;;;14.30;84.40;;;;;;5049833;28;19917;-79
2023/09/04 03:36:05;;;;;;;;;;;14.30;84.50;;;;;;5031959;28;19913;-79
2023/09/04 03:38:30;;;;;;;;;;;14.20;85.10;;;;;;5051897;28;19917;-79
2023/09/04 03:40:56;;;;;;;;;;;14.10;85.50;;;;;;5040912;28;19935;-79
2023/09/04 03:43:22;;;;;;;;;;;14.20;84.80;;;;;;5033553;28;19976;-79
2023/09/04 03:45:47;;;;;;;;;;;14.10;85.20;;;;;;5045228;28;19913;-79
2023/09/04 03:48:13;;;;;;;;;;;14.00;85.40;;;;;;5033999;28;19921;-79
2023/09/04 03:50:39;;;;;;;;;;;14.00;85.70;;;;;;5051488;28;19913;-78
2023/09/04 03:53:05;;;;;;;;;;;14.00;85.00;;;;;;5053954;28;19913;-80
2023/09/04 03:55:30;;;;;;;;;;;14.10;84.50;;;;;;5039752;28;19909;-79
2023/09/04 03:57:55;;;;;;;;;;;13.90;85.10;;;;;;5057172;28;19927;-79
2023/09/04 04:00:22;;;;;;;;;;;13.80;85.40;;;;;;5056333;28;19916;-79
2023/09/04 04:02:48;;;;;;;;;;;13.80;85.70;;;;;;5035239;28;20293;-79
2023/09/04 04:05:14;;;;;;;;;;;13.80;85.80;;;;;;5050859;28;19913;-80
2023/09/04 04:07:40;;;;;;;;;;;13.80;85.40;;;;;;5048085;28;19920;-79
2023/09/04 04:10:05;;;;;;;;;;;13.80;85.30;;;;;;5037137;28;20312;-79
2023/09/04 04:12:31;;;;;;;;;;;13.90;84.70;;;;;;5052741;28;19935;-80
2023/09/04 04:14:57;;;;;;;;;;;13.70;85.30;;;;;;5047016;28;19932;-80
2023/09/04 04:17:23;;;;;;;;;;;13.60;85.80;;;;;;5028225;28;20333;-79
2023/09/04 04:19:50;;;;;;;;;;;13.70;85.90;;;;;;5053615;28;20015;-79
2023/09/04 04:22:16;;;;;;;;;;;13.80;85.20;;;;;;5034120;28;19998;-79
2023/09/04 04:24:41;;;;;;;;;;;13.80;85.20;;;;;;5055367;28;19928;-79
2023/09/04 04:27:08;;;;;;;;;;;13.80;85.20;;;;;;5048969;28;19913;-79
2023/09/04 04:29:34;;;;;;;;;;;13.90;84.90;;;;;;5037965;28;19909;-78
2023/09/04 04:31:59;;;;;;;;;;;13.70;85.40;;;;;;5032823;28;19913;-78
2023/09/04 04:34:25;;;;;;;;;;;13.70;85.40;;;;;;5041933;28;19925;-80
2023/09/04 04:36:55;;;;;;;;;;;13.80;84.60;;;;;;5052949;28;19913;-79
2023/09/04 04:39:21;;;;;;;;;;;13.80;84.00;;;;;;5045532;28;20328;-79
2023/09/04 04:41:48;;;;;;;;;;;13.70;84.30;;;;;;5030460;28;19937;-78
2023/09/04 04:44:13;;;;;;;;;;;13.70;85.00;;;;;;5027826;28;19913;-79
2023/09/04 04:46:40;;;;;;;;;;;13.60;85.50;;;;;;5032512;28;19975;-79
2023/09/04 04:49:05;;;;;;;;;;;13.50;86.00;;;;;;5053247;28;20368;-79
2023/09/04 04:51:31;;;;;;;;;;;13.50;86.10;;;;;;5043343;28;19968;-79
2023/09/04 04:53:56;;;;;;;;;;;13.40;86.30;;;;;;5052353;28;19924;-79
2023/09/04 04:56:22;;;;;;;;;;;13.30;86.30;;;;;;5043272;28;19924;-79
2023/09/04 04:58:48;;;;;;;;;;;13.30;86.80;;;;;;5036188;28;19996;-79
2023/09/04 05:01:13;;;;;;;;;;;13.40;87.00;;;;;;5052578;28;20568;-79
2023/09/04 05:03:39;;;;;;;;;;;13.40;86.70;;;;;;5035405;28;19913;-78
2023/09/04 05:06:06;;;;;;;;;;;13.40;86.70;;;;;;5047762;28;19917;-79
2023/09/04 05:08:32;;;;;;;;;;;13.50;86.60;;;;;;5025174;28;19917;-78
2023/09/04 05:10:59;;;;;;;;;;;13.50;86.70;;;;;;5041469;28;19920;-78
2023/09/04 05:13:25;;;;;;;;;;;13.50;86.60;;;;;;5053711;28;19921;-79
2023/09/04 05:15:50;;;;;;;;;;;13.60;86.40;;;;;;5037538;28;19956;-79
2023/09/04 05:18:15;;;;;;;;;;;13.70;85.70;;;;;;5047450;28;20373;-79
2023/09/04 05:20:41;;;;;;;;;;;13.60;85.80;;;;;;5052730;28;19917;-80
2023/09/04 05:23:06;;;;;;;;;;;13.60;85.80;;;;;;5053903;28;19917;-81
2023/09/04 05:25:32;;;;;;;;;;;13.60;86.40;;;;;;5055538;28;19924;-80
2023/09/04 05:27:57;;;;;;;;;;;13.60;86.50;;;;;;5050572;28;19909;-80
2023/09/04 05:30:23;;;;;;;;;;;13.60;86.70;;;;;;5051505;28;19921;-80
2023/09/04 05:32:50;;;;;;;;;;;13.70;86.90;;;;;;5045986;28;19917;-82
2023/09/04 05:35:16;;;;;;;;;;;13.80;86.30;;;;;;5049373;28;19929;-80
2023/09/04 05:37:41;;;;;;;;;;;13.80;85.60;;;;;;5045295;28;19920;-82
2023/09/04 05:40:07;;;;;;;;;;;13.90;85.70;;;;;;5054858;28;19988;-80
2023/09/04 05:42:32;;;;;;;;;;;13.80;86.00;;;;;;5046012;28;19913;-81
2023/09/04 05:44:58;;;;;;;;;;;13.90;86.40;;;;;;5028710;28;20392;-83
2023/09/04 05:47:23;;;;;;;;;;;13.90;86.70;;;;;;5050732;28;19923;-84
2023/09/04 05:49:49;;;;;;;;;;;14.00;86.30;;;;;;5051249;28;20391;-84
2023/09/04 05:52:14;;;;;;;;;;;14.00;85.90;;;;;;5026208;28;19988;-84
2023/09/04 05:54:40;;;;;;;;;;;14.00;85.80;;;;;;5057176;28;19925;-83
2023/09/04 05:57:05;;;;;;;;;;;14.00;85.80;;;;;;5052755;28;19936;-83
2023/09/04 05:59:32;;;;;;;;;;;14.00;86.00;;;;;;5036100;28;22073;-83
2023/09/04 06:01:58;;;;;;;;;;;14.10;86.00;;;;;;5053633;28;20016;-84
2023/09/04 06:04:23;;;;;;;;;;;14.10;86.50;;;;;;5043925;28;19913;-83
2023/09/04 06:06:49;;;;;;;;;;;14.10;87.00;;;;;;5035011;28;19917;-84
2023/09/04 06:09:14;;;;;;;;;;;14.00;87.10;;;;;;5047200;28;20265;-83
2023/09/04 06:11:40;;;;;;;;;;;14.10;87.50;;;;;;5057829;28;19996;-84
2023/09/04 06:14:05;;;;;;;;;;;14.10;87.60;;;;;;5032509;28;19938;-84
2023/09/04 06:16:32;;;;;;;;;;;14.20;87.50;;;;;;5050312;28;19919;-81
2023/09/04 06:18:58;;;;;;;;;;;14.30;87.70;;;;;;5041012;28;19936;-83
2023/09/04 06:21:23;;;;;;;;;;;14.30;87.40;;;;;;5031962;28;19925;-83
2023/09/04 06:23:49;;;;;;;;;;;14.30;87.20;;;;;;5049776;28;19923;-83
2023/09/04 06:26:14;;;;;;;;;;;14.30;87.20;;;;;;5035956;28;19978;-81
2023/09/04 06:28:40;;;;;;;;;;;14.30;87.10;;;;;;5028965;28;19913;-83
2023/09/04 06:31:05;;;;;;;;;;;14.40;87.10;;;;;;5039343;28;19967;-82
2023/09/04 06:33:34;;;;;;;;;;;14.50;87.40;;;;;;5048481;28;19939;-82
2023/09/04 06:35:59;;;;;;;;;;;14.50;87.50;;;;;;5028725;28;19959;-82
2023/09/04 06:38:25;;;;;;;;;;;14.60;87.50;;;;;;5044384;28;19920;-82
2023/09/04 06:40:57;;;;;;;;;;;14.60;87.80;;;;;;5028222;28;19920;-83
2023/09/04 06:43:26;;;;;;;;;;;14.70;87.40;;;;;;5056135;28;19912;-82
2023/09/04 06:45:52;;;;;;;;;;;14.70;87.30;;;;;;5032260;28;19923;-82
2023/09/04 06:48:17;;;;;;;;;;;14.70;87.30;;;;;;5040997;28;20004;-82
2023/09/04 06:50:43;;;;;;;;;;;14.80;87.20;;;;;;5023589;28;19962;-83
2023/09/04 06:53:08;;;;;;;;;;;14.80;87.20;;;;;;5036272;28;19936;-83
2023/09/04 06:55:34;;;;;;;;;;;14.90;87.20;;;;;;5029189;28;19920;-83
2023/09/04 06:58:00;;;;;;;;;;;15.00;87.40;;;;;;5027063;28;19913;-83
2023/09/04 07:00:26;;;;;;;;;;;15.00;87.30;;;;;;5050740;28;19951;-83
2023/09/04 07:02:51;;;;;;;;;;;15.00;87.00;;;;;;5033917;28;20289;-83
2023/09/04 07:05:17;;;;;;;;;;;15.10;86.70;;;;;;5033390;28;19935;-82
2023/09/04 07:07:42;;;;;;;;;;;15.10;86.20;;;;;;5028061;28;19939;-84
2023/09/04 07:10:08;;;;;;;;;;;15.10;86.20;;;;;;5029604;28;19913;-83
2023/09/04 07:12:34;;;;;;;;;;;15.30;86.40;;;;;;5028567;28;20288;-81
2023/09/04 07:15:00;;;;;;;;;;;15.30;86.30;;;;;;5047788;28;19935;-81
2023/09/04 07:17:25;;;;;;;;;;;15.50;86.30;;;;;;5045310;28;20637;-82
2023/09/04 07:19:51;;;;;;;;;;;15.50;86.20;;;;;;5047133;28;19912;-81
2023/09/04 07:22:16;;;;;;;;;;;15.50;86.30;;;;;;5021888;28;20431;-82
2023/09/04 07:24:42;;;;;;;;;;;15.60;86.30;;;;;;5046480;28;19932;-80
2023/09/04 07:27:07;;;;;;;;;;;15.60;86.60;;;;;;5024321;28;20592;-80
2023/09/04 07:29:33;;;;;;;;;;;15.60;86.90;;;;;;5026078;28;19936;-79
2023/09/04 07:31:59;;;;;;;;;;;15.70;86.90;;;;;;5031203;28;20410;-80
2023/09/04 07:34:24;;;;;;;;;;;15.80;86.90;;;;;;5031838;28;19929;-80
2023/09/04 07:36:52;;;;;;;;;;;15.90;86.70;;;;;;5039828;28;20258;-80
2023/09/04 07:39:17;;;;;;;;;;;15.90;86.60;;;;;;5044320;28;19920;-80
2023/09/04 07:41:43;;;;;;;;;;;16.00;86.70;;;;;;5034789;28;19913;-83
2023/09/04 07:44:08;;;;;;;;;;;16.00;86.40;;;;;;5036939;28;19916;-81
2023/09/04 07:46:34;;;;;;;;;;;16.10;86.40;;;;;;5033763;28;19917;-79
2023/09/04 07:48:59;;;;;;;;;;;16.20;85.50;;;;;;5038838;28;19913;-81
2023/09/04 07:51:25;;;;;;;;;;;16.20;85.50;;;;;;5042386;28;20297;-82
2023/09/04 07:53:50;;;;;;;;;;;16.30;85.70;;;;;;5057080;28;20335;-81
2023/09/04 07:56:16;;;;;;;;;;;16.40;85.70;;;;;;5060817;28;20296;-81
2023/09/04 07:58:43;;;;;;;;;;;16.40;85.90;;;;;;5051365;28;19936;-80
2023/09/04 08:01:15;;;;;;;;;;;16.50;85.70;;;;;;5057146;28;19913;-81
2023/09/04 08:03:41;;;;;;;;;;;16.60;85.50;;;;;;5035217;28;19959;-81
2023/09/04 08:06:07;;;;;;;;;;;16.60;85.60;;;;;;5058607;28;19917;-82
2023/09/04 08:08:32;;;;;;;;;;;16.80;85.20;;;;;;5056744;28;20364;-83
2023/09/04 08:10:58;;;;;;;;;;;16.80;84.70;;;;;;5036029;28;19920;-81
2023/09/04 08:13:23;;;;;;;;;;;17.00;84.30;;;;;;5042854;28;20442;-81
2023/09/04 08:15:49;;;;;;;;;;;17.00;83.80;;;;;;5059828;28;19921;-81
2023/09/04 08:18:14;;;;;;;;;;;17.10;83.90;;;;;;5036562;28;19924;-81
2023/09/04 08:20:40;;;;;;;;;;;17.10;83.80;;;;;;5040341;28;19919;-81
2023/09/04 08:23:12;;;;;;;;;;;17.20;83.60;;;;;;5034464;28;19913;-81
2023/09/04 08:25:38;;;;;;;;;;;17.30;83.40;;;;;;5062265;28;19920;-81
2023/09/04 08:28:04;;;;;;;;;;;17.30;83.60;;;;;;5041249;28;20264;-82
2023/09/04 08:30:29;;;;;;;;;;;17.60;82.60;;;;;;5064633;28;19917;-81
2023/09/04 08:32:55;;;;;;;;;;;17.90;80.70;;;;;;5060113;28;19984;-81
2023/09/04 08:35:20;;;;;;;;;;;18.00;80.20;;;;;;5062296;28;19968;-80
2023/09/04 08:37:47;;;;;;;;;;;17.90;81.40;;;;;;5063016;23;20594;-79
2023/09/04 08:40:12;;;;;;;;;;;18.00;81.00;;;;;;5047652;28;19916;-81
2023/09/04 08:42:38;;;;;;;;;;;18.00;81.80;;;;;;5051490;28;20386;-82
2023/09/04 08:45:05;;;;;;;;;;;18.00;81.90;;;;;;5070929;28;19912;-83
2023/09/04 08:47:32;;;;;;;;;;;18.20;80.50;;;;;;5037657;28;19916;-84
2023/09/04 08:49:59;;;;;;;;;;;18.20;81.40;;;;;;5025838;28;19955;-84
2023/09/04 08:52:25;;;;;;;;;;;18.30;80.50;;;;;;5038907;28;19913;-83
2023/09/04 08:54:50;;;;;;;;;;;18.30;80.20;;;;;;5037545;28;20291;-83
2023/09/04 08:57:17;;;;;;;;;;;18.40;80.40;;;;;;5024251;28;19913;-80
2023/09/04 08:59:42;;;;;;;;;;;18.50;79.50;;;;;;5043300;28;19913;-80
2023/09/04 09:02:13;;;;;;;;;;;18.60;79.20;;;;;;5040962;28;19990;-80
2023/09/04 09:04:38;;;;;;;;;;;18.50;79.10;;;;;;5032063;28;19913;-80
2023/09/04 09:07:04;;;;;;;;;;;18.60;78.40;;;;;;5023762;28;19918;-80
2023/09/04 09:09:30;;;;;;;;;;;18.70;77.40;;;;;;5027960;28;19916;-81
2023/09/04 09:11:55;;;;;;;;;;;18.80;77.10;;;;;;5030248;28;19921;-83
2023/09/04 09:14:21;;;;;;;;;;;18.80;77.20;;;;;;5029180;28;19964;-83
2023/09/04 09:16:47;;;;;;;;;;;18.90;75.90;;;;;;5032570;28;20290;-83
2023/09/04 09:19:13;;;;;;;;;;;19.00;76.60;;;;;;5051786;28;19913;-84
2023/09/04 09:21:39;;;;;;;;;;;19.10;75.10;;;;;;5046180;28;19921;-83
2023/09/04 09:24:07;;;;;;;;;;;19.10;72.40;;;;;;5028803;28;20093;-84
2023/09/04 09:26:33;;;;;;;;;;;19.10;74.40;;;;;;5027033;28;19914;-80
2023/09/04 09:29:02;;;;;;;;;;;19.10;74.40;;;;;;5031426;28;19921;-83
2023/09/04 09:31:28;;;;;;;;;;;19.10;75.20;;;;;;5035142;28;20035;-84
2023/09/04 09:33:53;;;;;;;;;;;19.20;75.60;;;;;;5026963;28;19956;-82
2023/09/04 09:36:19;;;;;;;;;;;19.30;74.80;;;;;;5023877;28;19913;-84
2023/09/04 09:38:45;;;;;;;;;;;19.40;74.10;;;;;;5035430;28;19929;-84
2023/09/04 09:41:11;;;;;;;;;;;19.50;73.20;;;;;;5031840;28;20004;-84
2023/09/04 09:43:37;;;;;;;;;;;19.50;73.10;;;;;;5041543;28;19909;-82
2023/09/04 09:46:02;;;;;;;;;;;19.60;71.80;;;;;;5058099;28;19905;-83
2023/09/04 09:48:30;;;;;;;;;;;19.50;71.40;;;;;;5056564;28;19897;-83
2023/09/04 09:50:56;;;;;;;;;;;19.60;71.50;;;;;;5032607;28;19909;-84
2023/09/04 09:53:22;;;;;;;;;;;19.90;69.70;;;;;;5031972;28;20287;-84
2023/09/04 09:55:48;;;;;;;;;;;19.80;70.40;;;;;;5033673;28;19910;-82
2023/09/04 09:58:14;;;;;;;;;;;20.10;68.70;;;;;;5032410;28;19919;-83
2023/09/04 10:00:39;;;;;;;;;;;20.50;64.30;;;;;;5055196;28;19931;-82
2023/09/04 10:03:05;;;;;;;;;;;20.50;66.00;;;;;;5036063;28;20028;-83
2023/09/04 10:05:31;;;;;;;;;;;20.40;66.20;;;;;;5033586;28;19919;-83
2023/09/04 10:08:00;;;;;;;;;;;20.40;65.90;;;;;;5032388;28;19924;-83
2023/09/04 10:10:26;;;;;;;;;;;20.40;66.10;;;;;;5035090;28;20386;-83
2023/09/04 10:13:06;;;;;;;;;;;20.30;65.20;;;;;;5047898;28;19916;-82
2023/09/04 10:15:34;;;;;;;;;;;20.50;67.00;;;;;;5033607;28;19917;-81
2023/09/04 10:18:07;;;;;;;;;;;20.60;63.90;;;;;;5036264;28;19913;-83
2023/09/04 10:20:36;;;;;;;;;;;20.60;64.60;;;;;;5036663;28;19935;-82
2023/09/04 10:23:09;;;;;;;;;;;20.50;66.20;;;;;;5048637;28;19913;-83
2023/09/04 10:25:35;;;;;;;;;;;20.50;65.70;;;;;;5023612;28;19913;-83
2023/09/04 10:28:06;;;;;;;;;;;20.50;66.20;;;;;;5024786;28;19935;-82
2023/09/04 10:30:34;;;;;;;;;;;20.70;66.00;;;;;;5025034;28;20303;-82
2023/09/04 10:33:00;;;;;;;;;;;20.80;65.00;;;;;;5021782;28;19916;-83
2023/09/04 10:35:26;;;;;;;;;;;21.00;63.70;;;;;;5027709;28;19921;-82
2023/09/04 10:37:52;;;;;;;;;;;21.20;64.30;;;;;;5026207;28;19951;-83
2023/09/04 10:40:17;;;;;;;;;;;21.20;61.30;;;;;;5027080;28;19913;-83
2023/09/04 10:42:43;;;;;;;;;;;21.20;61.20;;;;;;5028315;28;19932;-83
2023/09/04 10:45:12;;;;;;;;;;;21.20;61.30;;;;;;5037860;28;19917;-83
2023/09/04 10:47:46;;;;;;;;;;;21.40;64.40;;;;;;5040336;28;20184;-82
2023/09/04 10:50:30;;;;;;;;;;;21.50;64.90;;;;;;5048292;28;19913;-83
2023/09/04 10:52:57;;;;;;;;;;;21.30;61.70;;;;;;5025739;28;19922;-83
2023/09/04 10:55:24;;;;;;;;;;;21.30;61.10;;;;;;5037810;28;19918;-82
2023/09/04 10:58:00;;;;;;;;;;;21.40;62.70;;;;;;5047488;28;19965;-83
2023/09/04 11:00:28;;;;;;;;;;;21.40;64.30;;;;;;5053824;28;19913;-83
2023/09/04 11:02:53;;;;;;;;;;;21.40;64.00;;;;;;5040716;28;19976;-84
2023/09/04 11:05:19;;;;;;;;;;;21.50;61.90;;;;;;5034893;28;20402;-83
2023/09/04 11:07:44;;;;;;;;;;;21.60;60.70;;;;;;5031881;28;19913;-81
2023/09/04 11:10:13;;;;;;;;;;;21.70;61.90;;;;;;5023926;28;19917;-81
2023/09/04 11:12:39;;;;;;;;;;;21.60;57.50;;;;;;5028266;28;19913;-81
2023/09/04 11:15:11;;;;;;;;;;;21.50;57.80;;;;;;5049595;28;19939;-81
2023/09/04 11:17:38;;;;;;;;;;;21.60;57.50;;;;;;5034855;28;19910;-81
2023/09/04 11:20:04;;;;;;;;;;;21.90;58.70;;;;;;5023040;28;19914;-81
2023/09/04 11:22:32;;;;;;;;;;;22.00;55.70;;;;;;5043693;28;20239;-80
2023/09/04 11:24:57;;;;;;;;;;;21.90;56.50;;;;;;5053842;28;20007;-80
2023/09/04 11:27:24;;;;;;;;;;;21.80;59.60;;;;;;5040546;28;19936;-82
2023/09/04 11:29:50;;;;;;;;;;;21.70;60.50;;;;;;5056832;28;19912;-81
2023/09/04 11:32:16;;;;;;;;;;;21.70;56.90;;;;;;5044278;28;19902;-82
2023/09/04 11:34:42;;;;;;;;;;;21.80;56.80;;;;;;5033171;28;20380;-81
2023/09/04 11:37:08;;;;;;;;;;;21.90;59.90;;;;;;5022585;28;19913;-82
2023/09/04 11:39:33;;;;;;;;;;;22.20;56.80;;;;;;5023923;28;20284;-81
2023/09/04 11:41:59;;;;;;;;;;;22.50;56.80;;;;;;5033509;28;20284;-82
2023/09/04 11:44:25;;;;;;;;;;;22.30;57.00;;;;;;5032586;28;19921;-82
2023/09/04 11:46:50;;;;;;;;;;;22.30;59.10;;;;;;5045167;28;19909;-83
2023/09/04 11:49:16;;;;;;;;;;;22.30;56.00;;;;;;5052709;28;20417;-82
2023/09/04 11:51:44;;;;;;;;;;;22.50;55.60;;;;;;5040648;28;19919;-80
2023/09/04 11:54:09;;;;;;;;;;;22.60;57.00;;;;;;5033569;28;19971;-81
2023/09/04 11:56:35;;;;;;;;;;;22.70;59.40;;;;;;5032399;28;20521;-82
2023/09/04 11:59:02;;;;;;;;;;;22.70;57.90;;;;;;5024337;28;19956;-82
2023/09/04 12:01:27;;;;;;;;;;;22.80;57.80;;;;;;5045223;28;19909;-81
2023/09/04 12:03:53;;;;;;;;;;;22.60;58.80;;;;;;5072326;28;19917;-82
2023/09/04 12:06:19;;;;;;;;;;;22.60;58.80;;;;;;5044318;28;19920;-83
2023/09/04 12:08:45;;;;;;;;;;;22.80;60.10;;;;;;5042853;28;19928;-82
2023/09/04 12:11:10;;;;;;;;;;;22.80;57.00;;;;;;5043746;28;19909;-82
2023/09/04 12:13:36;;;;;;;;;;;22.80;58.80;;;;;;5058481;28;19928;-87
2023/09/04 12:16:06;;;;;;;;;;;22.70;56.90;;;;;;5050379;28;19914;-82
2023/09/04 12:18:33;;;;;;;;;;;22.80;60.80;;;;;;5039106;28;20015;-82
2023/09/04 12:20:59;;;;;;;;;;;23.00;59.70;;;;;;5038634;28;21794;-82
2023/09/04 12:23:43;;;;;;;;;;;23.00;60.80;;;;;;5035801;28;19975;-82
2023/09/04 12:26:09;;;;;;;;;;;23.10;60.40;;;;;;5038272;28;19909;-82
2023/09/04 12:28:36;;;;;;;;;;;23.10;59.80;;;;;;5038181;28;19924;-82
2023/09/04 12:31:01;;;;;;;;;;;23.50;56.00;;;;;;5037990;28;19909;-82
2023/09/04 12:33:28;;;;;;;;;;;23.40;57.50;;;;;;5038543;28;20405;-83
2023/09/04 12:35:56;;;;;;;;;;;23.40;55.10;;;;;;5055394;28;19913;-82
2023/09/04 12:38:22;;;;;;;;;;;23.40;58.60;;;;;;5037265;28;19917;-82
2023/09/04 12:40:50;;;;;;;;;;;23.50;57.80;;;;;;5037735;28;19928;-82
2023/09/04 12:43:15;;;;;;;;;;;23.80;56.40;;;;;;5034173;28;20393;-82
2023/09/04 12:45:42;;;;;;;;;;;23.60;55.50;;;;;;5052745;28;19913;-80
2023/09/04 12:48:14;;;;;;;;;;;23.60;57.80;;;;;;5058451;28;19901;-80
2023/09/04 12:50:39;;;;;;;;;;;23.50;58.30;;;;;;5044532;28;20378;-82
2023/09/04 12:53:05;;;;;;;;;;;23.60;54.40;;;;;;5038341;28;19981;-82
2023/09/04 12:55:31;;;;;;;;;;;23.60;54.70;;;;;;5037775;28;19917;-82
2023/09/04 12:58:00;;;;;;;;;;;23.50;55.10;;;;;;5038850;28;19920;-82
2023/09/04 13:00:27;;;;;;;;;;;23.40;56.00;;;;;;5037979;28;19913;-82
2023/09/04 13:02:52;;;;;;;;;;;23.60;57.50;;;;;;5036865;28;20131;-82
2023/09/04 13:05:18;;;;;;;;;;;23.60;57.10;;;;;;5035792;28;19914;-83
2023/09/04 13:07:44;;;;;;;;;;;23.60;55.80;;;;;;5054182;28;20343;-82
2023/09/04 13:10:09;;;;;;;;;;;23.50;56.50;;;;;;5038416;28;19941;-83
2023/09/04 13:12:37;;;;;;;;;;;23.50;58.10;;;;;;5038595;28;20441;-83
2023/09/04 13:15:03;;;;;;;;;;;23.60;54.90;;;;;;5038062;28;19939;-82
2023/09/04 13:17:28;;;;;;;;;;;23.60;56.00;;;;;;5051761;23;19925;-82
2023/09/04 13:19:54;;;;;;;;;;;23.50;55.10;;;;;;5077081;28;19917;-82
2023/09/04 13:22:19;;;;;;;;;;;23.50;53.80;;;;;;5053952;28;19991;-81
2023/09/04 13:24:45;;;;;;;;;;;23.50;55.20;;;;;;5049738;28;20319;-83
2023/09/04 13:27:11;;;;;;;;;;;23.80;53.20;;;;;;5075610;28;19908;-81
2023/09/04 13:29:36;;;;;;;;;;;23.80;53.60;;;;;;5058154;28;20456;-82
2023/09/04 13:32:02;;;;;;;;;;;23.80;55.60;;;;;;5057856;28;19995;-82
2023/09/04 13:34:28;;;;;;;;;;;23.80;53.90;;;;;;5072099;28;20295;-82
2023/09/04 13:36:54;;;;;;;;;;;24.10;53.50;;;;;;5069210;28;19981;-81
2023/09/04 13:39:19;;;;;;;;;;;24.00;52.80;;;;;;5072509;28;19920;-83
2023/09/04 13:41:44;;;;;;;;;;;24.00;54.40;;;;;;5061702;28;19966;-83
2023/09/04 13:44:10;;;;;;;;;;;23.90;54.20;;;;;;5084159;28;19930;-82
2023/09/04 13:46:35;;;;;;;;;;;24.10;56.60;;;;;;5067104;28;19916;-81
2023/09/04 13:49:01;;;;;;;;;;;24.30;54.80;;;;;;5067008;28;19932;-82
2023/09/04 13:51:26;;;;;;;;;;;24.10;53.50;;;;;;5086482;28;20003;-81
2023/09/04 13:53:52;;;;;;;;;;;24.10;55.10;;;;;;5056298;28;19925;-82
2023/09/04 13:56:17;;;;;;;;;;;23.90;56.70;;;;;;5086099;28;19934;-84
2023/09/04 13:58:43;;;;;;;;;;;23.90;58.20;;;;;;5087111;28;20303;-84
2023/09/04 14:01:14;;;;;;;;;;;23.90;55.80;;;;;;5056832;28;19999;-82
2023/09/04 14:03:41;;;;;;;;;;;23.90;56.10;;;;;;5071763;28;20006;-82
2023/09/04 14:06:06;;;;;;;;;;;24.10;59.20;;;;;;5062997;28;20021;-83
2023/09/04 14:08:32;;;;;;;;;;;24.10;58.20;;;;;;5049559;28;20399;-82
2023/09/04 14:10:58;;;;;;;;;;;24.00;57.90;;;;;;5055529;28;19923;-84